Time;durP1;ratioP1;P1;durP2;ratioP2;P2;SDS_P1;SDS_P2;PMS_P1;PMS_P2;Temp;Humidity;BMP_temperature;BMP_pressure;BME280_temperature;BME280_humidity;BME280_pressure;Samples;Min_cycle;Max_cycle;Signal;HPM_P1;HPM_P2
2024/04/02 00:01:11;;;;;;;0.68;0.30;;;19.00;83.60;;;;;;5034966;28;20096;-33
2024/04/02 00:03:37;;;;;;;0.77;0.20;;;18.90;83.40;;;;;;5035453;28;20057;-33
2024/04/02 00:06:04;;;;;;;0.50;0.30;;;18.90;83.40;;;;;;5032576;28;20025;-32
2024/04/02 00:08:30;;;;;;;0.50;0.30;;;18.90;83.40;;;;;;5032234;28;20664;-33
2024/04/02 00:11:06;;;;;;;0.10;0.10;;;18.90;83.40;;;;;;5033182;28;20017;-32
2024/04/02 00:13:33;;;;;;;0.60;0.30;;;18.90;83.50;;;;;;5034000;28;20079;-33
2024/04/02 00:15:59;;;;;;;0.88;0.30;;;18.90;83.50;;;;;;5032287;28;20511;-33
2024/04/02 00:18:25;;;;;;;0.30;0.22;;;18.90;83.60;;;;;;5032776;28;20037;-33
2024/04/02 00:20:52;;;;;;;0.63;0.25;;;18.90;83.50;;;;;;5032284;28;20044;-33
2024/04/02 00:23:17;;;;;;;0.15;0.15;;;18.90;83.60;;;;;;5032672;28;20025;-33
2024/04/02 00:25:43;;;;;;;1.77;0.40;;;18.90;83.60;;;;;;5032311;28;20369;-33
2024/04/02 00:28:12;;;;;;;0.35;0.20;;;18.90;83.60;;;;;;5032156;28;20022;-33
2024/04/02 00:30:39;;;;;;;1.05;0.25;;;18.90;83.60;;;;;;5032255;28;20104;-32
2024/04/02 00:33:05;;;;;;;0.57;0.20;;;18.90;83.60;;;;;;5032306;28;20023;-33
2024/04/02 00:35:31;;;;;;;0.30;0.10;;;18.80;83.60;;;;;;5032326;28;20392;-33
2024/04/02 00:37:57;;;;;;;0.30;0.20;;;18.90;83.60;;;;;;5032441;28;20018;-33
2024/04/02 00:40:23;;;;;;;0.50;0.30;;;18.90;83.60;;;;;;5032492;28;20031;-33
2024/04/02 00:42:49;;;;;;;0.28;0.20;;;18.80;83.60;;;;;;5032319;28;20029;-33
2024/04/02 00:45:15;;;;;;;0.25;0.20;;;18.80;83.60;;;;;;5031871;28;20030;-33
2024/04/02 00:47:41;;;;;;;0.28;0.20;;;18.80;83.50;;;;;;5031658;28;20354;-33
2024/04/02 00:50:09;;;;;;;0.57;0.30;;;18.80;83.50;;;;;;5031881;28;20087;-33
2024/04/02 00:52:35;;;;;;;0.60;0.30;;;18.80;83.50;;;;;;5032123;28;20013;-33
2024/04/02 00:55:02;;;;;;;0.30;0.20;;;18.80;83.50;;;;;;5032433;28;20029;-33
2024/04/02 00:57:28;;;;;;;0.55;0.30;;;18.80;83.60;;;;;;5031870;28;20389;-33
2024/04/02 00:59:54;;;;;;;0.55;0.30;;;18.80;83.50;;;;;;5032267;28;20056;-34
2024/04/02 01:02:20;;;;;;;0.25;0.13;;;18.80;83.60;;;;;;5032039;28;20083;-33
2024/04/02 01:04:47;;;;;;;0.30;0.20;;;18.80;83.60;;;;;;5031945;28;20033;-34
2024/04/02 01:07:13;;;;;;;0.45;0.20;;;18.80;83.60;;;;;;5031200;28;20025;-35
2024/04/02 01:09:39;;;;;;;1.30;0.30;;;18.80;83.60;;;;;;5033049;28;20060;-32
2024/04/02 01:12:07;;;;;;;0.75;0.20;;;18.80;83.70;;;;;;5032375;28;20025;-33
2024/04/02 01:14:40;;;;;;;0.65;0.30;;;18.80;83.70;;;;;;5032136;28;20018;-32
2024/04/02 01:17:06;;;;;;;0.75;0.28;;;18.80;83.70;;;;;;5032500;28;20037;-34
2024/04/02 01:19:31;;;;;;;0.40;0.30;;;18.80;83.70;;;;;;5031738;28;20025;-33
2024/04/02 01:21:58;;;;;;;0.60;0.30;;;18.80;83.70;;;;;;5033823;28;20032;-33
2024/04/02 01:24:24;;;;;;;0.65;0.20;;;18.80;83.70;;;;;;5031613;28;20047;-33
2024/04/02 01:26:49;;;;;;;0.70;0.30;;;18.80;83.70;;;;;;5032614;28;20537;-32
2024/04/02 01:29:15;;;;;;;0.30;0.15;;;18.80;83.70;;;;;;5032851;28;20025;-33
2024/04/02 01:31:41;;;;;;;0.73;0.40;;;18.80;83.70;;;;;;5031534;28;20063;-34
2024/04/02 01:34:07;;;;;;;0.80;0.50;;;18.80;83.70;;;;;;5032103;28;20116;-32
2024/04/02 01:36:33;;;;;;;1.75;0.80;;;18.80;83.70;;;;;;5032235;28;20504;-33
2024/04/02 01:38:58;;;;;;;2.60;1.17;;;18.80;83.70;;;;;;5032212;28;20182;-31
2024/04/02 01:41:24;;;;;;;1.85;0.90;;;18.80;83.70;;;;;;5031915;28;20351;-32
2024/04/02 01:43:50;;;;;;;2.63;1.10;;;18.70;83.70;;;;;;5032812;28;20114;-32
2024/04/02 01:46:15;;;;;;;1.95;1.27;;;18.70;83.60;;;;;;5036047;28;20029;-33
2024/04/02 01:48:41;;;;;;;1.88;1.10;;;18.80;83.70;;;;;;5035827;28;20542;-33
2024/04/02 01:51:07;;;;;;;3.03;1.20;;;18.70;83.70;;;;;;5035296;28;20022;-33
2024/04/02 01:53:32;;;;;;;2.92;1.50;;;18.70;83.70;;;;;;5035592;28;20026;-31
2024/04/02 01:55:59;;;;;;;2.30;1.30;;;18.70;83.70;;;;;;5039231;28;20120;-32
2024/04/02 01:58:25;;;;;;;3.50;1.48;;;18.70;83.80;;;;;;5036379;28;20168;-33
2024/04/02 02:00:50;;;;;;;3.05;1.40;;;18.70;83.80;;;;;;5035598;28;20462;-33
2024/04/02 02:03:17;;;;;;;3.50;1.48;;;18.70;83.80;;;;;;5034458;28;20022;-35
2024/04/02 02:05:46;;;;;;;3.08;1.30;;;18.70;83.80;;;;;;5035540;28;20033;-32
2024/04/02 02:08:11;;;;;;;1.17;0.70;;;18.70;83.80;;;;;;5035462;28;20055;-33
2024/04/02 02:10:37;;;;;;;1.65;1.02;;;18.70;83.80;;;;;;5035607;28;20377;-33
2024/04/02 02:13:05;;;;;;;1.60;0.70;;;18.70;83.80;;;;;;5034750;28;20420;-32
2024/04/02 02:15:31;;;;;;;1.73;0.85;;;18.70;83.80;;;;;;5034976;28;20026;-32
2024/04/02 02:17:57;;;;;;;2.83;1.20;;;18.70;83.80;;;;;;5034845;28;20092;-33
2024/04/02 02:20:22;;;;;;;1.52;0.90;;;18.70;83.80;;;;;;5034467;28;20025;-32
2024/04/02 02:22:48;;;;;;;1.90;1.00;;;18.70;83.80;;;;;;5036191;28;20025;-32
2024/04/02 02:25:14;;;;;;;1.75;0.80;;;18.70;83.80;;;;;;5034812;28;20037;-33
2024/04/02 02:27:40;;;;;;;1.42;0.75;;;18.70;83.80;;;;;;5034526;28;20075;-32
2024/04/02 02:30:07;;;;;;;1.75;0.80;;;18.70;83.80;;;;;;5034897;28;20029;-33
2024/04/02 02:32:33;;;;;;;2.80;0.90;;;18.70;83.80;;;;;;5035094;28;20018;-33
2024/04/02 02:34:59;;;;;;;1.45;0.80;;;18.70;83.80;;;;;;5035618;28;20046;-33
2024/04/02 02:37:25;;;;;;;1.25;0.90;;;18.70;83.90;;;;;;5035526;28;20443;-33
2024/04/02 02:39:51;;;;;;;2.13;0.70;;;18.60;83.80;;;;;;5034465;28;20021;-33
2024/04/02 02:42:17;;;;;;;1.63;0.93;;;18.60;83.90;;;;;;5035575;28;20056;-32
2024/04/02 02:44:44;;;;;;;1.00;0.60;;;18.70;83.90;;;;;;5035030;28;20038;-32
2024/04/02 02:47:09;;;;;;;2.33;0.77;;;18.60;83.90;;;;;;5034931;28;20092;-32
2024/04/02 02:49:35;;;;;;;2.10;0.80;;;18.60;83.90;;;;;;5035681;28;20408;-32
2024/04/02 02:52:01;;;;;;;1.33;0.60;;;18.60;83.90;;;;;;5036247;28;20028;-32
2024/04/02 02:54:26;;;;;;;1.05;0.70;;;18.60;83.90;;;;;;5034282;28;20387;-32
2024/04/02 02:56:52;;;;;;;1.88;0.90;;;18.60;83.90;;;;;;5033732;28;20022;-32
2024/04/02 02:59:17;;;;;;;1.00;0.60;;;18.60;83.90;;;;;;5034297;28;20037;-31
2024/04/02 03:01:43;;;;;;;1.35;0.60;;;18.60;83.90;;;;;;5034749;28;20518;-32
2024/04/02 03:04:08;;;;;;;1.88;0.75;;;18.60;83.90;;;;;;5033914;28;20116;-32
2024/04/02 03:06:34;;;;;;;1.40;0.60;;;18.60;83.90;;;;;;5033722;28;20022;-33
2024/04/02 03:09:00;;;;;;;1.05;0.70;;;18.60;83.90;;;;;;5034733;28;20037;-32
2024/04/02 03:11:25;;;;;;;2.38;0.73;;;18.60;83.80;;;;;;5033565;28;20026;-33
2024/04/02 03:13:51;;;;;;;1.25;0.70;;;18.60;83.80;;;;;;5033688;28;20468;-32
2024/04/02 03:16:20;;;;;;;0.75;0.45;;;18.60;83.80;;;;;;5033299;28;20060;-32
2024/04/02 03:18:46;;;;;;;1.05;0.43;;;18.60;83.80;;;;;;5036705;28;20025;-32
2024/04/02 03:21:13;;;;;;;1.67;0.80;;;18.60;83.80;;;;;;5033255;28;20022;-33
2024/04/02 03:23:39;;;;;;;0.90;0.60;;;18.60;83.80;;;;;;5035883;28;20022;-32
2024/04/02 03:26:05;;;;;;;0.68;0.30;;;18.60;83.80;;;;;;5033837;28;20036;-33
2024/04/02 03:28:30;;;;;;;1.08;0.60;;;18.60;83.90;;;;;;5033757;28;20017;-32
2024/04/02 03:31:00;;;;;;;1.05;0.60;;;18.60;83.90;;;;;;5035217;28;20044;-32
2024/04/02 03:33:26;;;;;;;0.98;0.50;;;18.60;83.90;;;;;;5033066;28;20028;-33
2024/04/02 03:35:52;;;;;;;1.15;0.60;;;18.60;83.90;;;;;;5033179;28;20048;-32
2024/04/02 03:38:18;;;;;;;0.95;0.52;;;18.60;83.90;;;;;;5034022;28;20029;-32
2024/04/02 03:40:44;;;;;;;1.05;0.60;;;18.60;83.90;;;;;;5033861;28;20467;-32
2024/04/02 03:43:10;;;;;;;1.08;0.52;;;18.60;83.80;;;;;;5033311;28;20029;-32
2024/04/02 03:45:40;;;;;;;0.77;0.50;;;18.50;83.70;;;;;;5033175;28;20025;-32
2024/04/02 03:48:07;;;;;;;1.15;0.55;;;18.60;83.70;;;;;;5034441;28;20026;-32
2024/04/02 03:50:33;;;;;;;1.25;0.50;;;18.60;83.70;;;;;;5033821;28;20388;-32
2024/04/02 03:52:59;;;;;;;0.77;0.55;;;18.60;83.80;;;;;;5034400;28;20081;-32
2024/04/02 03:55:25;;;;;;;1.38;0.50;;;18.50;83.60;;;;;;5034332;28;20053;-32
2024/04/02 03:57:50;;;;;;;1.52;0.60;;;18.50;83.60;;;;;;5034360;28;20025;-32
2024/04/02 04:00:16;;;;;;;0.93;0.50;;;18.50;83.60;;;;;;5033729;28;20107;-32
2024/04/02 04:02:41;;;;;;;1.13;0.60;;;18.60;83.70;;;;;;5033651;28;20029;-32
2024/04/02 04:05:07;;;;;;;1.95;0.50;;;18.50;83.70;;;;;;5032533;28;20091;-31
2024/04/02 04:07:33;;;;;;;0.60;0.40;;;18.60;83.80;;;;;;5032896;28;20055;-32
2024/04/02 04:09:58;;;;;;;0.90;0.35;;;18.50;83.70;;;;;;5033837;28;20018;-32
2024/04/02 04:12:24;;;;;;;0.60;0.47;;;18.50;83.80;;;;;;5033858;28;20022;-32
2024/04/02 04:14:50;;;;;;;1.67;0.40;;;18.50;83.80;;;;;;5034823;28;20041;-32
2024/04/02 04:17:16;;;;;;;1.30;0.38;;;18.50;83.80;;;;;;5033771;28;20117;-32
2024/04/02 04:19:42;;;;;;;1.70;0.43;;;18.50;83.80;;;;;;5034243;28;20125;-32
2024/04/02 04:22:07;;;;;;;0.77;0.35;;;18.50;83.80;;;;;;5032337;28;20021;-32
2024/04/02 04:24:33;;;;;;;0.52;0.40;;;18.50;83.80;;;;;;5032150;28;20029;-31
2024/04/02 04:26:58;;;;;;;0.82;0.40;;;18.50;83.80;;;;;;5032922;28;20041;-32
2024/04/02 04:29:24;;;;;;;1.20;0.60;;;18.50;83.80;;;;;;5032679;28;20051;-32
2024/04/02 04:31:50;;;;;;;0.65;0.40;;;18.50;83.80;;;;;;5033269;28;20029;-32
2024/04/02 04:34:17;;;;;;;0.80;0.43;;;18.50;83.80;;;;;;5032408;28;20100;-33
2024/04/02 04:36:42;;;;;;;0.95;0.50;;;18.50;83.80;;;;;;5034189;28;20484;-33
2024/04/02 04:39:08;;;;;;;0.75;0.40;;;18.50;83.80;;;;;;5033671;28;20030;-32
2024/04/02 04:41:35;;;;;;;0.38;0.30;;;18.50;83.80;;;;;;5031954;28;20075;-33
2024/04/02 04:44:00;;;;;;;1.98;0.50;;;18.50;83.80;;;;;;5032964;28;20026;-32
2024/04/02 04:46:26;;;;;;;1.55;0.40;;;18.50;83.80;;;;;;5032621;28;20076;-32
2024/04/02 04:48:52;;;;;;;0.43;0.30;;;18.50;83.80;;;;;;5033577;28;20017;-32
2024/04/02 04:51:18;;;;;;;0.80;0.45;;;18.50;83.80;;;;;;5032015;28;20076;-31
2024/04/02 04:53:43;;;;;;;1.95;0.38;;;18.50;83.80;;;;;;5033075;28;20021;-32
2024/04/02 04:56:09;;;;;;;0.88;0.40;;;18.50;83.80;;;;;;5032497;28;20033;-31
2024/04/02 04:58:35;;;;;;;0.65;0.35;;;18.50;83.80;;;;;;5033324;28;20105;-32
2024/04/02 05:01:03;;;;;;;0.85;0.40;;;18.50;83.80;;;;;;5031855;28;20037;-32
2024/04/02 05:03:29;;;;;;;1.00;0.40;;;18.50;83.80;;;;;;5032888;28;20389;-32
2024/04/02 05:06:10;;;;;;;1.92;0.40;;;18.40;83.80;;;;;;5033051;28;20017;-31
2024/04/02 05:08:36;;;;;;;0.40;0.28;;;18.40;83.70;;;;;;5032982;28;20045;-32
2024/04/02 05:11:04;;;;;;;0.63;0.30;;;18.40;83.70;;;;;;5030341;28;20442;-33
2024/04/02 05:13:30;;;;;;;0.40;0.25;;;18.40;83.80;;;;;;5033089;28;20014;-31
2024/04/02 05:15:57;;;;;;;0.85;0.35;;;18.40;83.80;;;;;;5033559;28;20026;-32
2024/04/02 05:18:22;;;;;;;1.00;0.28;;;18.40;83.80;;;;;;5035039;28;20047;-32
2024/04/02 05:20:48;;;;;;;0.70;0.28;;;18.40;83.80;;;;;;5036024;28;20104;-31
2024/04/02 05:23:14;;;;;;;0.45;0.30;;;18.40;83.80;;;;;;5035686;28;20038;-32
2024/04/02 05:25:40;;;;;;;0.60;0.30;;;18.40;83.80;;;;;;5035511;28;20041;-32
2024/04/02 05:28:07;;;;;;;1.10;0.35;;;18.40;83.80;;;;;;5037318;28;20026;-32
2024/04/02 05:30:34;;;;;;;0.50;0.20;;;18.40;83.90;;;;;;5038643;28;20084;-31
2024/04/02 05:33:00;;;;;;;0.57;0.38;;;18.40;83.90;;;;;;5036267;28;20087;-32
2024/04/02 05:35:26;;;;;;;0.90;0.20;;;18.40;84.00;;;;;;5036656;28;20030;-31
2024/04/02 05:37:53;;;;;;;0.80;0.40;;;18.40;84.00;;;;;;5037262;28;20060;-31
2024/04/02 05:40:19;;;;;;;0.32;0.25;;;18.40;84.00;;;;;;5035286;28;20034;-32
2024/04/02 05:42:45;;;;;;;0.40;0.20;;;18.40;84.00;;;;;;5036182;28;20033;-32
2024/04/02 05:45:12;;;;;;;0.50;0.30;;;18.40;84.00;;;;;;5036934;28;20048;-31
2024/04/02 05:47:38;;;;;;;1.05;0.40;;;18.40;84.70;;;;;;5035962;28;20388;-31
2024/04/02 05:50:04;;;;;;;0.43;0.30;;;18.40;84.00;;;;;;5035423;28;20395;-31
2024/04/02 05:52:31;;;;;;;0.60;0.35;;;18.40;84.00;;;;;;5035881;28;20061;-32
2024/04/02 05:54:57;;;;;;;1.05;0.30;;;18.40;84.00;;;;;;5035036;28;20057;-32
2024/04/02 05:57:23;;;;;;;0.50;0.30;;;18.40;84.00;;;;;;5034804;28;20022;-32
2024/04/02 05:59:52;;;;;;;0.77;0.47;;;18.40;84.00;;;;;;5036191;28;20024;-32
2024/04/02 06:02:19;;;;;;;0.40;0.30;;;18.40;84.00;;;;;;5036115;28;20446;-32
2024/04/02 06:04:45;;;;;;;0.50;0.20;;;18.40;84.00;;;;;;5035833;28;20029;-32
2024/04/02 06:07:12;;;;;;;0.88;0.40;;;18.40;84.10;;;;;;5035675;28;20034;-32
2024/04/02 06:09:38;;;;;;;0.40;0.20;;;18.40;84.10;;;;;;5035356;28;20033;-32
2024/04/02 06:12:04;;;;;;;0.45;0.20;;;18.40;84.10;;;;;;5036548;28;20021;-33
2024/04/02 06:14:31;;;;;;;0.40;0.20;;;18.40;84.10;;;;;;5035595;28;20033;-32
2024/04/02 06:16:57;;;;;;;0.25;0.15;;;18.40;84.40;;;;;;5035727;28;20033;-32
2024/04/02 06:19:23;;;;;;;0.47;0.30;;;18.40;84.20;;;;;;5035231;28;20029;-31
2024/04/02 06:21:49;;;;;;;0.50;0.20;;;18.40;84.20;;;;;;5034670;28;20107;-32
2024/04/02 06:24:14;;;;;;;0.40;0.30;;;18.40;84.20;;;;;;5034507;28;20081;-31
2024/04/02 06:26:40;;;;;;;0.75;0.30;;;18.40;84.10;;;;;;5035035;28;20030;-33
2024/04/02 06:29:06;;;;;;;0.85;0.30;;;18.40;84.10;;;;;;5035610;28;20224;-31
2024/04/02 06:31:31;;;;;;;0.57;0.22;;;18.40;84.10;;;;;;5034698;28;20025;-32
2024/04/02 06:33:57;;;;;;;0.30;0.20;;;18.40;84.20;;;;;;5034572;28;20034;-32
2024/04/02 06:36:26;;;;;;;0.70;0.30;;;18.50;84.20;;;;;;5036372;28;20465;-31
2024/04/02 06:38:52;;;;;;;0.80;0.20;;;18.40;84.10;;;;;;5035376;28;20045;-32
2024/04/02 06:41:17;;;;;;;0.30;0.20;;;18.40;84.10;;;;;;5034994;28;20067;-33
2024/04/02 06:43:43;;;;;;;1.85;0.15;;;18.40;84.10;;;;;;5035040;28;20025;-31
2024/04/02 06:46:09;;;;;;;0.30;0.20;;;18.40;84.10;;;;;;5034460;28;20025;-32
2024/04/02 06:48:34;;;;;;;0.40;0.20;;;18.40;84.20;;;;;;5034478;28;20042;-32
2024/04/02 06:51:13;;;;;;;0.22;0.20;;;18.40;84.10;;;;;;5036862;28;20388;-33
2024/04/02 06:53:39;;;;;;;0.95;0.22;;;18.40;84.20;;;;;;5034824;28;20017;-33
2024/04/02 06:56:09;;;;;;;0.25;0.13;;;18.40;84.20;;;;;;5034085;28;20037;-32
2024/04/02 06:58:34;;;;;;;0.28;0.20;;;18.40;85.00;;;;;;5035551;28;20033;-32
2024/04/02 07:01:00;;;;;;;0.70;0.30;;;18.40;84.30;;;;;;5035801;28;20026;-33
2024/04/02 07:03:26;;;;;;;0.28;0.20;;;18.40;84.30;;;;;;5034864;28;20123;-32
2024/04/02 07:05:53;;;;;;;0.43;0.20;;;18.40;84.30;;;;;;5033943;28;20021;-33
2024/04/02 07:08:24;;;;;;;0.08;0.00;;;18.40;84.40;;;;;;5034403;28;20036;-33
2024/04/02 07:11:04;;;;;;;0.90;0.20;;;18.50;84.50;;;;;;5034793;28;20394;-33
2024/04/02 07:13:33;;;;;;;0.30;0.15;;;18.50;84.50;;;;;;5034542;28;20477;-32
2024/04/02 07:16:01;;;;;;;0.60;0.20;;;18.50;84.40;;;;;;5034552;28;20061;-33
2024/04/02 07:18:34;;;;;;;0.30;0.20;;;18.50;84.40;;;;;;5035003;28;20037;-32
2024/04/02 07:21:02;;;;;;;0.30;0.20;;;18.60;84.50;;;;;;5034306;28;20033;-33
2024/04/02 07:23:28;;;;;;;0.47;0.20;;;18.60;84.40;;;;;;5035185;28;20083;-32
2024/04/02 07:25:54;;;;;;;0.52;0.20;;;18.60;84.40;;;;;;5033397;28;20029;-33
2024/04/02 07:28:21;;;;;;;0.20;0.10;;;18.70;84.40;;;;;;5034115;28;20530;-33
2024/04/02 07:30:46;;;;;;;0.40;0.25;;;18.70;84.30;;;;;;5034388;28;20030;-33
2024/04/02 07:33:13;;;;;;;0.50;0.20;;;18.70;84.30;;;;;;5033683;28;20022;-33
2024/04/02 07:35:39;;;;;;;0.40;0.15;;;18.80;84.20;;;;;;5033063;28;20480;-33
2024/04/02 07:38:05;;;;;;;0.28;0.20;;;18.80;84.10;;;;;;5032980;28;20025;-33
2024/04/02 07:40:31;;;;;;;0.40;0.15;;;18.90;84.00;;;;;;5034040;28;20116;-35
2024/04/02 07:42:58;;;;;;;0.40;0.20;;;18.90;83.90;;;;;;5032284;28;20068;-32
2024/04/02 07:45:24;;;;;;;0.50;0.20;;;19.00;83.80;;;;;;5033673;28;20026;-32
2024/04/02 07:47:50;;;;;;;0.63;0.28;;;19.00;83.80;;;;;;5032821;28;20030;-33
2024/04/02 07:50:16;;;;;;;1.13;0.40;;;19.10;83.30;;;;;;5032766;28;20024;-31
2024/04/02 07:52:43;;;;;;;0.90;0.32;;;19.10;82.40;;;;;;5034218;28;20468;-33
2024/04/02 07:55:08;;;;;;;2.38;0.60;;;19.10;82.20;;;;;;5034231;28;20030;-32
2024/04/02 07:57:34;;;;;;;1.85;0.68;;;19.20;82.90;;;;;;5034296;28;20516;-32
2024/04/02 08:00:00;;;;;;;2.08;0.50;;;19.20;81.90;;;;;;5033208;28;20388;-32
2024/04/02 08:02:25;;;;;;;1.45;0.45;;;19.20;81.90;;;;;;5034695;28;20053;-31
2024/04/02 08:04:51;;;;;;;1.52;0.38;;;19.30;81.80;;;;;;5032824;28;20029;-32
2024/04/02 08:07:18;;;;;;;0.60;0.35;;;19.30;81.70;;;;;;5032511;28;20028;-32
2024/04/02 08:09:47;;;;;;;0.80;0.30;;;19.40;81.70;;;;;;5034169;28;20024;-31
2024/04/02 08:12:13;;;;;;;1.88;0.50;;;19.40;81.60;;;;;;5033345;28;20060;-32
2024/04/02 08:14:41;;;;;;;2.33;0.60;;;19.50;81.60;;;;;;5033553;28;20044;-32
2024/04/02 08:17:07;;;;;;;0.93;0.30;;;19.50;81.50;;;;;;5033635;28;20033;-32
2024/04/02 08:19:32;;;;;;;0.98;0.40;;;19.50;81.40;;;;;;5032549;28;20021;-32
2024/04/02 08:21:58;;;;;;;1.02;0.30;;;19.60;81.40;;;;;;5033810;28;20471;-32
2024/04/02 08:24:25;;;;;;;1.75;0.57;;;19.60;81.30;;;;;;5032759;28;20130;-33
2024/04/02 08:26:51;;;;;;;1.25;0.35;;;19.60;81.20;;;;;;5032547;28;20021;-32
2024/04/02 08:29:16;;;;;;;5.03;0.70;;;19.70;81.00;;;;;;5032701;28;20105;-33
2024/04/02 08:31:42;;;;;;;1.60;0.70;;;19.70;80.70;;;;;;5032248;28;20029;-32
2024/04/02 08:34:07;;;;;;;1.95;0.70;;;19.60;80.90;;;;;;5032463;28;20036;-33
2024/04/02 08:36:33;;;;;;;2.45;0.90;;;19.60;80.80;;;;;;5032509;28;20112;-33
2024/04/02 08:38:59;;;;;;;4.07;0.82;;;19.60;80.80;;;;;;5033347;28;20025;-33
2024/04/02 08:41:26;;;;;;;2.40;0.50;;;19.40;81.00;;;;;;5032151;28;20025;-33
2024/04/02 08:43:57;;;;;;;4.43;0.60;;;19.40;80.80;;;;;;5033086;28;20377;-32
2024/04/02 08:46:26;;;;;;;2.08;0.60;;;19.30;80.50;;;;;;5032312;28;20092;-32
2024/04/02 08:48:56;;;;;;;2.55;0.88;;;19.40;80.50;;;;;;5031973;28;20024;-32
2024/04/02 08:51:22;;;;;;;2.85;0.70;;;19.40;80.30;;;;;;5031938;28;20084;-31
2024/04/02 08:53:48;;;;;;;2.78;0.70;;;19.50;80.30;;;;;;5031999;28;20026;-33
2024/04/02 08:56:17;;;;;;;2.33;0.63;;;19.50;80.20;;;;;;5032613;28;20079;-31
2024/04/02 08:58:45;;;;;;;3.00;1.30;;;19.60;80.10;;;;;;5031672;28;20049;-33
2024/04/02 09:01:15;;;;;;;3.85;1.25;;;19.60;80.10;;;;;;5032447;28;20029;-33
2024/04/02 09:03:41;;;;;;;3.20;1.10;;;19.60;80.00;;;;;;5034213;28;20566;-32
2024/04/02 09:06:07;;;;;;;3.30;1.13;;;19.60;80.00;;;;;;5032735;28;20030;-32
2024/04/02 09:08:45;;;;;;;4.22;1.20;;;19.60;80.00;;;;;;5032671;28;20530;-32
2024/04/02 09:11:12;;;;;;;1.98;1.15;;;19.70;80.00;;;;;;5032892;28;20025;-32
2024/04/02 09:13:39;;;;;;;2.80;1.20;;;19.70;79.90;;;;;;5032127;28;20104;-32
2024/04/02 09:16:05;;;;;;;2.85;1.10;;;19.80;79.90;;;;;;5032155;28;20026;-32
2024/04/02 09:18:35;;;;;;;1.52;1.00;;;19.80;79.90;;;;;;5032870;28;20040;-32
2024/04/02 09:21:01;;;;;;;2.05;1.17;;;19.90;79.90;;;;;;5032014;28;20044;-33
2024/04/02 09:23:27;;;;;;;2.88;0.93;;;19.90;79.80;;;;;;5032727;28;20484;-32
2024/04/02 09:25:53;;;;;;;1.45;0.90;;;20.00;79.80;;;;;;5031922;28;20076;-33
2024/04/02 09:28:19;;;;;;;2.33;1.02;;;20.00;79.80;;;;;;5032212;28;20057;-33
2024/04/02 09:30:45;;;;;;;1.58;0.77;;;20.10;79.80;;;;;;5033445;28;20029;-33
2024/04/02 09:33:11;;;;;;;3.30;1.02;;;20.10;79.70;;;;;;5031915;28;20041;-32
2024/04/02 09:36:11;;;;;;;1.60;1.00;;;20.20;79.70;;;;;;5031607;28;20033;-32
2024/04/02 09:38:36;;;;;;;2.53;1.02;;;20.20;79.60;;;;;;5033344;28;20029;-33
2024/04/02 09:41:04;;;;;;;1.92;1.00;;;20.30;79.60;;;;;;5033971;28;20047;-33
2024/04/02 09:43:31;;;;;;;1.50;0.98;;;20.40;79.60;;;;;;5032922;28;20134;-33
2024/04/02 09:46:01;;;;;;;2.42;1.00;;;20.40;79.50;;;;;;5033580;28;20029;-32
2024/04/02 09:48:33;;;;;;;2.17;1.02;;;20.50;79.40;;;;;;5032692;28;20017;-33
2024/04/02 09:51:00;;;;;;;1.45;0.90;;;20.50;79.20;;;;;;5034405;28;20060;-33
2024/04/02 09:53:27;;;;;;;1.58;0.73;;;20.60;79.20;;;;;;5033611;28;20030;-31
2024/04/02 09:55:55;;;;;;;1.58;0.80;;;20.70;79.00;;;;;;5032597;28;20040;-32
2024/04/02 09:58:21;;;;;;;2.90;1.02;;;20.80;78.90;;;;;;5031586;28;20029;-33
2024/04/02 10:00:52;;;;;;;1.60;1.10;;;20.80;79.60;;;;;;5033947;28;20104;-33
2024/04/02 10:03:21;;;;;;;1.77;0.80;;;20.90;78.80;;;;;;5033140;28;20025;-32
2024/04/02 10:05:47;;;;;;;1.88;1.00;;;20.90;78.80;;;;;;5035859;28;20052;-32
2024/04/02 10:08:12;;;;;;;3.17;0.90;;;21.00;78.70;;;;;;5037164;28;20473;-34
2024/04/02 10:10:41;;;;;;;3.78;1.15;;;21.00;78.70;;;;;;5036049;28;20022;-33
2024/04/02 10:13:07;;;;;;;4.88;0.90;;;21.00;77.60;;;;;;5036956;28;20026;-32
2024/04/02 10:15:34;;;;;;;3.00;0.95;;;21.20;76.90;;;;;;5037100;28;20067;-32
2024/04/02 10:18:01;;;;;;;3.72;1.10;;;21.30;76.30;;;;;;5037390;28;20485;-32
2024/04/02 10:20:33;;;;;;;3.95;1.02;;;21.30;76.00;;;;;;5034216;28;20026;-32
2024/04/02 10:23:00;;;;;;;3.28;0.93;;;21.50;75.70;;;;;;5034724;28;20544;-32
2024/04/02 10:25:28;;;;;;;2.88;1.00;;;21.60;75.40;;;;;;5034476;28;20025;-30
2024/04/02 10:27:59;;;;;;;2.63;0.93;;;21.70;75.30;;;;;;5035558;28;20022;-33
2024/04/02 10:30:26;;;;;;;3.33;1.15;;;21.70;75.10;;;;;;5037101;28;20026;-36
2024/04/02 10:32:54;;;;;;;3.72;1.20;;;21.80;74.90;;;;;;5037045;28;20021;-36
2024/04/02 10:35:21;;;;;;;2.95;0.90;;;21.90;74.80;;;;;;5036336;28;20017;-33
2024/04/02 10:37:51;;;;;;;2.85;0.95;;;21.90;74.80;;;;;;5036904;28;20025;-32
2024/04/02 10:40:17;;;;;;;3.85;1.35;;;22.00;75.70;;;;;;5036928;28;20061;-32
2024/04/02 10:42:45;;;;;;;1.98;0.90;;;22.20;74.50;;;;;;5035340;28;20056;-32
2024/04/02 10:45:12;;;;;;;1.83;0.80;;;22.50;74.10;;;;;;5036415;28;20558;-33
2024/04/02 10:47:45;;;;;;;1.92;0.60;;;22.70;74.00;;;;;;5035986;28;20389;-33
2024/04/02 10:50:11;;;;;;;3.40;1.00;;;23.00;73.50;;;;;;5036020;28;20026;-32
2024/04/02 10:52:37;;;;;;;3.22;0.88;;;23.10;73.00;;;;;;5034977;28;20029;-31
2024/04/02 10:55:06;;;;;;;2.47;0.85;;;23.30;72.50;;;;;;5034437;28;20100;-31
2024/04/02 10:57:33;;;;;;;2.55;0.77;;;23.50;72.70;;;;;;5033847;28;20041;-30
2024/04/02 11:00:01;;;;;;;1.33;0.60;;;23.50;72.30;;;;;;5034500;28;20432;-31
2024/04/02 11:02:27;;;;;;;3.05;0.80;;;23.40;72.30;;;;;;5035378;28;20045;-33
2024/04/02 11:04:54;;;;;;;1.33;0.65;;;23.40;72.20;;;;;;5035951;28;20025;-30
2024/04/02 11:07:22;;;;;;;2.60;0.88;;;23.30;72.10;;;;;;5033565;28;20068;-32
2024/04/02 11:09:48;;;;;;;1.90;0.55;;;23.40;72.10;;;;;;5034471;28;20198;-33
2024/04/02 11:12:15;;;;;;;2.35;0.80;;;23.30;72.10;;;;;;5036343;28;20044;-33
2024/04/02 11:14:41;;;;;;;3.03;0.85;;;23.30;73.00;;;;;;5036296;28;20088;-33
2024/04/02 11:17:08;;;;;;;3.28;0.93;;;23.30;72.30;;;;;;5036091;28;20461;-32
2024/04/02 11:19:33;;;;;;;1.65;0.70;;;23.30;72.90;;;;;;5034998;28;20057;-33
2024/04/02 11:24:58;;;;;;;2.20;0.73;;;23.20;73.10;;;;;;4996464;28;20557;-32
2024/04/02 11:27:25;;;;;;;1.15;0.50;;;23.20;72.30;;;;;;5035258;28;20047;-32
2024/04/02 11:29:50;;;;;;;1.40;0.55;;;23.20;72.30;;;;;;5035292;28;20013;-32
2024/04/02 11:32:17;;;;;;;1.88;0.47;;;23.20;72.40;;;;;;5034988;28;20025;-32
2024/04/02 11:34:42;;;;;;;1.20;0.68;;;23.20;72.70;;;;;;5035667;28;20055;-31
2024/04/02 11:37:08;;;;;;;1.58;0.63;;;23.20;72.80;;;;;;5034596;28;20026;-32
2024/04/02 11:39:35;;;;;;;1.20;0.60;;;23.20;72.80;;;;;;5034350;28;20025;-31
2024/04/02 11:42:00;;;;;;;1.38;0.63;;;23.20;72.80;;;;;;5034027;28;20512;-34
2024/04/02 11:44:26;;;;;;;1.52;0.40;;;23.40;72.80;;;;;;5033580;28;20316;-32
2024/04/02 11:46:52;;;;;;;1.25;0.60;;;23.40;72.70;;;;;;5033407;28;20022;-31
2024/04/02 11:49:17;;;;;;;1.65;0.52;;;23.40;72.50;;;;;;5033068;28;20543;-33
2024/04/02 11:51:44;;;;;;;1.85;0.73;;;23.50;72.40;;;;;;5033034;28;20022;-32
2024/04/02 11:54:10;;;;;;;0.90;0.50;;;23.50;72.20;;;;;;5033210;28;20480;-33
2024/04/02 12:02:04;;;;;;;1.52;0.65;;;23.80;72.00;;;;;;5032792;28;20037;-33
2024/04/02 12:04:29;;;;;;;1.95;0.50;;;24.00;71.60;;;;;;5032665;28;20022;-33
2024/04/02 12:06:56;;;;;;;1.48;0.70;;;24.20;71.30;;;;;;5032810;28;20061;-31
2024/04/02 12:09:22;;;;;;;1.73;0.55;;;24.50;70.70;;;;;;5032505;28;20041;-33
2024/04/02 12:11:48;;;;;;;1.23;0.43;;;24.50;70.30;;;;;;5032727;28;20021;-34
2024/04/02 12:14:13;;;;;;;0.70;0.40;;;24.50;70.30;;;;;;5032490;28;20381;-31
2024/04/02 12:16:39;;;;;;;1.05;0.55;;;24.40;70.20;;;;;;5032311;28;20033;-32
2024/04/02 12:19:05;;;;;;;1.23;0.63;;;24.30;70.30;;;;;;5032533;28;20023;-31
2024/04/02 12:21:31;;;;;;;1.23;0.40;;;24.30;70.40;;;;;;5032439;28;20116;-35
2024/04/02 12:23:57;;;;;;;1.77;0.60;;;24.20;70.40;;;;;;5030320;28;20109;-34
2024/04/02 12:26:22;;;;;;;1.60;0.40;;;24.20;70.50;;;;;;5031004;28;20022;-34
2024/04/02 12:28:48;;;;;;;1.05;0.40;;;24.10;71.60;;;;;;5031197;28;20033;-33
2024/04/02 12:31:14;;;;;;;0.32;0.20;;;23.90;71.50;;;;;;5032123;28;20026;-39
2024/04/02 12:33:39;;;;;;;2.63;0.43;;;23.70;72.10;;;;;;5031733;28;20381;-34
2024/04/02 12:36:06;;;;;;;1.33;0.30;;;23.60;72.90;;;;;;5031322;28;20105;-34
2024/04/02 12:38:31;;;;;;;2.15;0.60;;;23.60;72.80;;;;;;5031777;28;20033;-35
2024/04/02 12:41:01;;;;;;;1.02;0.50;;;23.40;73.50;;;;;;5032233;28;20033;-34
2024/04/02 12:43:27;;;;;;;1.67;0.50;;;23.20;73.70;;;;;;5032107;28;20030;-33
2024/04/02 12:45:53;;;;;;;1.45;0.45;;;23.10;73.50;;;;;;5031744;28;20036;-34
2024/04/02 12:48:18;;;;;;;1.70;0.30;;;23.10;73.30;;;;;;5031542;28;20120;-34
2024/04/02 12:50:52;;;;;;;1.65;0.52;;;23.00;73.80;;;;;;5032037;28;20055;-35
2024/04/02 12:53:18;;;;;;;1.52;0.32;;;23.10;73.50;;;;;;5032123;28;20396;-34